sensor_id;sensor_type;location;lat;lon;timestamp;temperature;humidity
20524;DHT22;10420;48.542;12.270;2022-09-13T00:04:00;10.90;99.90
20524;DHT22;10420;48.542;12.270;2022-09-13T00:09:01;10.90;99.90
20524;DHT22;10420;48.542;12.270;2022-09-13T00:14:02;11.00;99.90
20524;DHT22;10420;48.542;12.270;2022-09-13T00:19:03;10.90;99.90
20524;DHT22;10420;48.542;12.270;2022-09-13T00:24:04;10.90;99.90
20524;DHT22;10420;48.542;12.270;2022-09-13T00:29:05;10.90;99.90
20524;DHT22;10420;48.542;12.270;2022-09-13T00:34:06;10.90;99.90
20524;DHT22;10420;48.542;12.270;2022-09-13T00:39:07;10.80;99.90
20524;DHT22;10420;48.542;12.270;2022-09-13T00:49:47;11.00;99.90
20524;DHT22;10420;48.542;12.270;2022-09-13T00:55:02;10.90;99.90
20524;DHT22;10420;48.542;12.270;2022-09-13T01:00:12;10.90;99.90
20524;DHT22;10420;48.542;12.270;2022-09-13T01:05:14;10.70;99.90
20524;DHT22;10420;48.542;12.270;2022-09-13T01:10:16;10.80;99.90
20524;DHT22;10420;48.542;12.270;2022-09-13T01:15:17;10.80;99.90
20524;DHT22;10420;48.542;12.270;2022-09-13T01:20:18;10.70;99.90
20524;DHT22;10420;48.542;12.270;2022-09-13T01:25:50;10.90;99.90
20524;DHT22;10420;48.542;12.270;2022-09-13T01:31:04;10.80;99.90
20524;DHT22;10420;48.542;12.270;2022-09-13T01:41:36;10.80;99.90
20524;DHT22;10420;48.542;12.270;2022-09-13T01:56:56;10.90;99.90
20524;DHT22;10420;48.542;12.270;2022-09-13T02:02:09;10.80;99.90
20524;DHT22;10420;48.542;12.270;2022-09-13T02:07:17;10.70;99.90
20524;DHT22;10420;48.542;12.270;2022-09-13T02:12:21;10.70;99.90
20524;DHT22;10420;48.542;12.270;2022-09-13T02:17:25;10.70;99.90
20524;DHT22;10420;48.542;12.270;2022-09-13T02:22:35;10.70;99.90
20524;DHT22;10420;48.542;12.270;2022-09-13T02:27:40;10.60;99.90
20524;DHT22;10420;48.542;12.270;2022-09-13T02:32:55;10.50;99.90
20524;DHT22;10420;48.542;12.270;2022-09-13T02:38:04;10.60;99.90
20524;DHT22;10420;48.542;12.270;2022-09-13T02:43:30;10.60;99.90
20524;DHT22;10420;48.542;12.270;2022-09-13T02:53:54;10.70;99.90
20524;DHT22;10420;48.542;12.270;2022-09-13T02:59:07;10.60;99.90
20524;DHT22;10420;48.542;12.270;2022-09-13T03:04:09;10.60;99.90
20524;DHT22;10420;48.542;12.270;2022-09-13T03:09:10;10.60;99.90
20524;DHT22;10420;48.542;12.270;2022-09-13T03:25:30;10.40;99.90
20524;DHT22;10420;48.542;12.270;2022-09-13T03:30:37;10.30;99.90
20524;DHT22;10420;48.542;12.270;2022-09-13T03:41:18;10.30;99.90
20524;DHT22;10420;48.542;12.270;2022-09-13T03:46:46;10.30;99.90
20524;DHT22;10420;48.542;12.270;2022-09-13T03:51:49;10.40;99.90
20524;DHT22;10420;48.542;12.270;2022-09-13T04:02:06;10.00;99.90
20524;DHT22;10420;48.542;12.270;2022-09-13T04:07:14;9.90;99.90
20524;DHT22;10420;48.542;12.270;2022-09-13T04:12:16;10.10;99.90
20524;DHT22;10420;48.542;12.270;2022-09-13T04:17:17;10.00;99.90
20524;DHT22;10420;48.542;12.270;2022-09-13T04:22:18;10.10;99.90
20524;DHT22;10420;48.542;12.270;2022-09-13T04:27:18;9.90;99.90
20524;DHT22;10420;48.542;12.270;2022-09-13T04:32:19;9.90;99.90
20524;DHT22;10420;48.542;12.270;2022-09-13T04:37:19;10.00;99.90
20524;DHT22;10420;48.542;12.270;2022-09-13T04:42:20;10.00;99.90
20524;DHT22;10420;48.542;12.270;2022-09-13T04:47:21;10.00;99.90
20524;DHT22;10420;48.542;12.270;2022-09-13T04:52:22;10.10;99.90
20524;DHT22;10420;48.542;12.270;2022-09-13T04:57:23;10.00;99.90
20524;DHT22;10420;48.542;12.270;2022-09-13T05:02:23;10.00;99.90
20524;DHT22;10420;48.542;12.270;2022-09-13T05:07:24;10.20;99.90
20524;DHT22;10420;48.542;12.270;2022-09-13T05:12:25;10.20;99.90
20524;DHT22;10420;48.542;12.270;2022-09-13T05:17:25;10.40;99.90
20524;DHT22;10420;48.542;12.270;2022-09-13T05:22:26;10.50;99.90
20524;DHT22;10420;48.542;12.270;2022-09-13T05:27:27;10.60;99.90
20524;DHT22;10420;48.542;12.270;2022-09-13T05:32:30;10.90;99.90
20524;DHT22;10420;48.542;12.270;2022-09-13T05:37:31;11.00;99.90
20524;DHT22;10420;48.542;12.270;2022-09-13T05:42:31;11.30;99.90
20524;DHT22;10420;48.542;12.270;2022-09-13T05:47:32;11.40;99.90
20524;DHT22;10420;48.542;12.270;2022-09-13T05:52:32;11.50;99.90
20524;DHT22;10420;48.542;12.270;2022-09-13T05:57:33;11.70;99.90
20524;DHT22;10420;48.542;12.270;2022-09-13T06:02:35;11.90;99.90
20524;DHT22;10420;48.542;12.270;2022-09-13T06:07:38;13.10;99.90
20524;DHT22;10420;48.542;12.270;2022-09-13T06:12:40;13.60;99.90
20524;DHT22;10420;48.542;12.270;2022-09-13T06:17:41;14.80;99.90
20524;DHT22;10420;48.542;12.270;2022-09-13T06:22:41;18.00;99.90
20524;DHT22;10420;48.542;12.270;2022-09-13T06:27:42;16.90;99.90
20524;DHT22;10420;48.542;12.270;2022-09-13T06:32:43;16.20;99.90
20524;DHT22;10420;48.542;12.270;2022-09-13T06:37:43;15.90;99.90
20524;DHT22;10420;48.542;12.270;2022-09-13T06:42:44;15.40;99.90
20524;DHT22;10420;48.542;12.270;2022-09-13T06:47:45;14.70;99.90
20524;DHT22;10420;48.542;12.270;2022-09-13T06:52:45;15.70;99.90
20524;DHT22;10420;48.542;12.270;2022-09-13T06:57:46;16.00;99.90
20524;DHT22;10420;48.542;12.270;2022-09-13T07:02:51;17.70;99.90
20524;DHT22;10420;48.542;12.270;2022-09-13T07:07:52;17.10;99.90
20524;DHT22;10420;48.542;12.270;2022-09-13T07:12:52;18.00;99.90
20524;DHT22;10420;48.542;12.270;2022-09-13T07:17:53;18.60;99.90
20524;DHT22;10420;48.542;12.270;2022-09-13T07:22:54;18.20;99.90
20524;DHT22;10420;48.542;12.270;2022-09-13T07:27:55;18.50;99.90
20524;DHT22;10420;48.542;12.270;2022-09-13T07:32:55;18.50;99.90
20524;DHT22;10420;48.542;12.270;2022-09-13T07:37:56;18.20;99.90
20524;DHT22;10420;48.542;12.270;2022-09-13T07:42:57;18.60;99.90
20524;DHT22;10420;48.542;12.270;2022-09-13T07:47:57;18.60;99.90
20524;DHT22;10420;48.542;12.270;2022-09-13T07:52:58;18.70;99.90
20524;DHT22;10420;48.542;12.270;2022-09-13T07:57:58;18.50;99.90
20524;DHT22;10420;48.542;12.270;2022-09-13T08:02:59;19.80;99.90
20524;DHT22;10420;48.542;12.270;2022-09-13T08:08:00;21.30;99.90
20524;DHT22;10420;48.542;12.270;2022-09-13T08:13:01;21.40;99.90
20524;DHT22;10420;48.542;12.270;2022-09-13T08:18:01;22.20;99.90
20524;DHT22;10420;48.542;12.270;2022-09-13T08:23:02;22.10;99.90
20524;DHT22;10420;48.542;12.270;2022-09-13T08:28:08;21.80;99.90
20524;DHT22;10420;48.542;12.270;2022-09-13T08:33:10;21.90;99.90
20524;DHT22;10420;48.542;12.270;2022-09-13T08:38:11;21.00;99.90
20524;DHT22;10420;48.542;12.270;2022-09-13T08:48:18;20.80;99.90
20524;DHT22;10420;48.542;12.270;2022-09-13T08:53:28;20.50;99.90
20524;DHT22;10420;48.542;12.270;2022-09-13T09:03:41;21.40;99.90
20524;DHT22;10420;48.542;12.270;2022-09-13T09:19:20;23.30;99.90
20524;DHT22;10420;48.542;12.270;2022-09-13T09:24:24;24.40;99.90
20524;DHT22;10420;48.542;12.270;2022-09-13T09:29:28;24.20;99.90
20524;DHT22;10420;48.542;12.270;2022-09-13T09:34:53;26.30;99.90
20524;DHT22;10420;48.542;12.270;2022-09-13T09:40:00;26.90;99.90
20524;DHT22;10420;48.542;12.270;2022-09-13T09:45:34;24.30;99.90
20524;DHT22;10420;48.542;12.270;2022-09-13T09:50:42;25.20;99.90
20524;DHT22;10420;48.542;12.270;2022-09-13T10:00:54;24.10;99.90
20524;DHT22;10420;48.542;12.270;2022-09-13T10:06:10;24.30;99.90
20524;DHT22;10420;48.542;12.270;2022-09-13T10:11:12;25.50;99.90
20524;DHT22;10420;48.542;12.270;2022-09-13T10:16:29;26.10;99.90
20524;DHT22;10420;48.542;12.270;2022-09-13T10:21:30;25.10;99.90
20524;DHT22;10420;48.542;12.270;2022-09-13T10:26:32;25.30;99.90
20524;DHT22;10420;48.542;12.270;2022-09-13T10:31:35;25.90;99.90
20524;DHT22;10420;48.542;12.270;2022-09-13T10:36:37;26.10;99.90
20524;DHT22;10420;48.542;12.270;2022-09-13T10:41:52;25.80;99.90
20524;DHT22;10420;48.542;12.270;2022-09-13T10:46:54;24.60;99.90
20524;DHT22;10420;48.542;12.270;2022-09-13T10:51:55;23.90;99.90
20524;DHT22;10420;48.542;12.270;2022-09-13T10:56:55;23.80;99.90
20524;DHT22;10420;48.542;12.270;2022-09-13T11:07:40;24.20;99.90
20524;DHT22;10420;48.542;12.270;2022-09-13T11:13:06;24.50;99.90
20524;DHT22;10420;48.542;12.270;2022-09-13T11:29:20;23.30;99.90
20524;DHT22;10420;48.542;12.270;2022-09-13T11:39:31;22.70;99.90
20524;DHT22;10420;48.542;12.270;2022-09-13T11:50:21;22.10;99.90
20524;DHT22;10420;48.542;12.270;2022-09-13T11:55:45;22.00;99.90
20524;DHT22;10420;48.542;12.270;2022-09-13T12:00:58;22.10;99.90
20524;DHT22;10420;48.542;12.270;2022-09-13T12:06:19;22.00;99.90
20524;DHT22;10420;48.542;12.270;2022-09-13T12:11:28;21.90;99.90
20524;DHT22;10420;48.542;12.270;2022-09-13T12:16:35;21.80;99.90
20524;DHT22;10420;48.542;12.270;2022-09-13T12:21:40;21.70;99.90
20524;DHT22;10420;48.542;12.270;2022-09-13T12:31:53;21.70;99.90
20524;DHT22;10420;48.542;12.270;2022-09-13T12:37:10;21.80;99.90
20524;DHT22;10420;48.542;12.270;2022-09-13T12:42:46;21.70;99.90
20524;DHT22;10420;48.542;12.270;2022-09-13T13:04:21;21.40;99.90
20524;DHT22;10420;48.542;12.270;2022-09-13T13:14:42;21.60;99.90
20524;DHT22;10420;48.542;12.270;2022-09-13T13:19:43;21.70;99.90
20524;DHT22;10420;48.542;12.270;2022-09-13T13:24:46;21.80;99.90
20524;DHT22;10420;48.542;12.270;2022-09-13T13:35:30;22.10;99.90
20524;DHT22;10420;48.542;12.270;2022-09-13T13:40:31;22.10;99.90
20524;DHT22;10420;48.542;12.270;2022-09-13T13:45:32;22.00;99.90
20524;DHT22;10420;48.542;12.270;2022-09-13T13:50:34;21.90;99.90
20524;DHT22;10420;48.542;12.270;2022-09-13T13:55:46;21.90;99.90
20524;DHT22;10420;48.542;12.270;2022-09-13T14:00:50;21.70;99.90
20524;DHT22;10420;48.542;12.270;2022-09-13T14:06:00;21.60;99.90
20524;DHT22;10420;48.542;12.270;2022-09-13T14:21:27;22.00;99.90
20524;DHT22;10420;48.542;12.270;2022-09-13T14:26:28;22.10;99.90
20524;DHT22;10420;48.542;12.270;2022-09-13T14:31:29;21.90;99.90
20524;DHT22;10420;48.542;12.270;2022-09-13T14:36:30;21.90;99.90
20524;DHT22;10420;48.542;12.270;2022-09-13T14:41:35;21.60;99.90
20524;DHT22;10420;48.542;12.270;2022-09-13T14:46:40;21.50;99.90
20524;DHT22;10420;48.542;12.270;2022-09-13T14:51:51;21.40;99.90
20524;DHT22;10420;48.542;12.270;2022-09-13T14:56:57;21.40;99.90
20524;DHT22;10420;48.542;12.270;2022-09-13T15:07:30;21.40;99.90
20524;DHT22;10420;48.542;12.270;2022-09-13T15:12:31;21.20;99.90
20524;DHT22;10420;48.542;12.270;2022-09-13T15:17:53;20.90;99.90
20524;DHT22;10420;48.542;12.270;2022-09-13T15:22:54;20.70;99.90
20524;DHT22;10420;48.542;12.270;2022-09-13T15:27:56;20.80;99.90
20524;DHT22;10420;48.542;12.270;2022-09-13T15:38:30;20.50;99.90
20524;DHT22;10420;48.542;12.270;2022-09-13T15:43:31;20.40;99.90
20524;DHT22;10420;48.542;12.270;2022-09-13T15:48:34;20.30;99.90
20524;DHT22;10420;48.542;12.270;2022-09-13T15:53:36;20.10;99.90
20524;DHT22;10420;48.542;12.270;2022-09-13T15:58:38;20.10;99.90
20524;DHT22;10420;48.542;12.270;2022-09-13T16:03:39;20.10;99.90
20524;DHT22;10420;48.542;12.270;2022-09-13T16:08:39;20.00;99.90
20524;DHT22;10420;48.542;12.270;2022-09-13T16:13:40;20.20;99.90
20524;DHT22;10420;48.542;12.270;2022-09-13T16:18:41;20.00;99.90
20524;DHT22;10420;48.542;12.270;2022-09-13T16:23:41;19.80;99.90
20524;DHT22;10420;48.542;12.270;2022-09-13T16:28:42;19.70;99.90
20524;DHT22;10420;48.542;12.270;2022-09-13T16:33:43;19.60;99.90
20524;DHT22;10420;48.542;12.270;2022-09-13T16:38:43;19.60;99.90
20524;DHT22;10420;48.542;12.270;2022-09-13T16:43:44;19.60;99.90
20524;DHT22;10420;48.542;12.270;2022-09-13T16:48:47;19.70;99.90
20524;DHT22;10420;48.542;12.270;2022-09-13T16:53:53;19.60;99.90
20524;DHT22;10420;48.542;12.270;2022-09-13T16:58:54;19.60;99.90
20524;DHT22;10420;48.542;12.270;2022-09-13T17:03:55;19.50;99.90
20524;DHT22;10420;48.542;12.270;2022-09-13T17:08:59;19.40;99.90
20524;DHT22;10420;48.542;12.270;2022-09-13T17:14:02;19.30;99.90
20524;DHT22;10420;48.542;12.270;2022-09-13T17:19:07;19.30;99.90
20524;DHT22;10420;48.542;12.270;2022-09-13T17:24:10;19.20;99.90
20524;DHT22;10420;48.542;12.270;2022-09-13T17:29:11;19.20;99.90
20524;DHT22;10420;48.542;12.270;2022-09-13T17:34:12;19.10;99.90
20524;DHT22;10420;48.542;12.270;2022-09-13T17:39:13;18.80;99.90
20524;DHT22;10420;48.542;12.270;2022-09-13T17:44:14;18.80;99.90
20524;DHT22;10420;48.542;12.270;2022-09-13T17:49:15;18.80;99.90
20524;DHT22;10420;48.542;12.270;2022-09-13T17:54:16;18.70;99.90
20524;DHT22;10420;48.542;12.270;2022-09-13T17:59:19;18.50;99.90
20524;DHT22;10420;48.542;12.270;2022-09-13T18:04:21;18.50;99.90
20524;DHT22;10420;48.542;12.270;2022-09-13T18:09:22;18.40;99.90
20524;DHT22;10420;48.542;12.270;2022-09-13T18:14:23;18.30;99.90
20524;DHT22;10420;48.542;12.270;2022-09-13T18:19:26;18.50;99.90
20524;DHT22;10420;48.542;12.270;2022-09-13T18:24:27;18.30;99.90
20524;DHT22;10420;48.542;12.270;2022-09-13T18:29:28;18.10;99.90
20524;DHT22;10420;48.542;12.270;2022-09-13T18:34:31;18.00;99.90
20524;DHT22;10420;48.542;12.270;2022-09-13T18:39:31;17.90;99.90
20524;DHT22;10420;48.542;12.270;2022-09-13T18:44:32;17.90;99.90
20524;DHT22;10420;48.542;12.270;2022-09-13T18:49:33;17.80;99.90
20524;DHT22;10420;48.542;12.270;2022-09-13T18:54:34;17.80;99.90
20524;DHT22;10420;48.542;12.270;2022-09-13T18:59:34;17.70;99.90
20524;DHT22;10420;48.542;12.270;2022-09-13T19:04:35;17.50;99.90
20524;DHT22;10420;48.542;12.270;2022-09-13T19:09:36;17.40;99.90
20524;DHT22;10420;48.542;12.270;2022-09-13T19:14:37;17.40;99.90
20524;DHT22;10420;48.542;12.270;2022-09-13T19:19:38;17.30;99.90
20524;DHT22;10420;48.542;12.270;2022-09-13T19:24:39;17.30;99.90
20524;DHT22;10420;48.542;12.270;2022-09-13T19:29:40;17.20;99.90
20524;DHT22;10420;48.542;12.270;2022-09-13T19:34:40;17.20;99.90
20524;DHT22;10420;48.542;12.270;2022-09-13T19:39:41;17.10;99.90
20524;DHT22;10420;48.542;12.270;2022-09-13T19:44:42;17.00;99.90
20524;DHT22;10420;48.542;12.270;2022-09-13T19:49:51;17.00;99.90
20524;DHT22;10420;48.542;12.270;2022-09-13T19:54:52;16.90;99.90
20524;DHT22;10420;48.542;12.270;2022-09-13T19:59:55;16.90;99.90
20524;DHT22;10420;48.542;12.270;2022-09-13T20:04:56;16.90;99.90
20524;DHT22;10420;48.542;12.270;2022-09-13T20:09:56;16.80;99.90
20524;DHT22;10420;48.542;12.270;2022-09-13T20:14:57;16.80;99.90
20524;DHT22;10420;48.542;12.270;2022-09-13T20:19:58;16.70;99.90
20524;DHT22;10420;48.542;12.270;2022-09-13T20:24:58;16.70;99.90
20524;DHT22;10420;48.542;12.270;2022-09-13T20:29:59;16.60;99.90
20524;DHT22;10420;48.542;12.270;2022-09-13T20:35:00;16.40;99.90
20524;DHT22;10420;48.542;12.270;2022-09-13T20:40:00;16.40;99.90
20524;DHT22;10420;48.542;12.270;2022-09-13T20:45:02;16.40;99.90
20524;DHT22;10420;48.542;12.270;2022-09-13T20:50:04;16.20;99.90
20524;DHT22;10420;48.542;12.270;2022-09-13T20:55:05;16.20;99.90
20524;DHT22;10420;48.542;12.270;2022-09-13T21:00:06;16.10;99.90
20524;DHT22;10420;48.542;12.270;2022-09-13T21:05:08;16.10;99.90
20524;DHT22;10420;48.542;12.270;2022-09-13T21:10:09;16.00;99.90
20524;DHT22;10420;48.542;12.270;2022-09-13T21:15:10;16.00;99.90
20524;DHT22;10420;48.542;12.270;2022-09-13T21:20:10;15.90;99.90
20524;DHT22;10420;48.542;12.270;2022-09-13T21:25:11;15.90;99.90
20524;DHT22;10420;48.542;12.270;2022-09-13T21:30:12;15.80;99.90
20524;DHT22;10420;48.542;12.270;2022-09-13T21:35:13;15.90;99.90
20524;DHT22;10420;48.542;12.270;2022-09-13T21:40:14;15.90;99.90
20524;DHT22;10420;48.542;12.270;2022-09-13T21:45:15;15.70;99.90
20524;DHT22;10420;48.542;12.270;2022-09-13T21:50:15;15.70;99.90
20524;DHT22;10420;48.542;12.270;2022-09-13T21:55:16;15.70;99.90
20524;DHT22;10420;48.542;12.270;2022-09-13T22:00:17;15.70;99.90
20524;DHT22;10420;48.542;12.270;2022-09-13T22:05:17;15.70;99.90
20524;DHT22;10420;48.542;12.270;2022-09-13T22:10:18;15.70;99.90
20524;DHT22;10420;48.542;12.270;2022-09-13T22:15:19;15.50;99.90
20524;DHT22;10420;48.542;12.270;2022-09-13T22:20:19;15.60;99.90
20524;DHT22;10420;48.542;12.270;2022-09-13T22:25:20;15.60;99.90
20524;DHT22;10420;48.542;12.270;2022-09-13T22:30:21;15.60;99.90
20524;DHT22;10420;48.542;12.270;2022-09-13T22:35:22;15.40;99.90
20524;DHT22;10420;48.542;12.270;2022-09-13T22:40:22;15.40;99.90
20524;DHT22;10420;48.542;12.270;2022-09-13T22:45:23;15.30;99.90
20524;DHT22;10420;48.542;12.270;2022-09-13T22:50:24;15.30;99.90
20524;DHT22;10420;48.542;12.270;2022-09-13T22:55:24;15.20;99.90
20524;DHT22;10420;48.542;12.270;2022-09-13T23:00:25;15.30;99.90
20524;DHT22;10420;48.542;12.270;2022-09-13T23:05:26;15.20;99.90
20524;DHT22;10420;48.542;12.270;2022-09-13T23:10:27;15.30;99.90
20524;DHT22;10420;48.542;12.270;2022-09-13T23:15:27;15.30;99.90
20524;DHT22;10420;48.542;12.270;2022-09-13T23:20:28;15.10;99.90
20524;DHT22;10420;48.542;12.270;2022-09-13T23:25:29;15.10;99.90
20524;DHT22;10420;48.542;12.270;2022-09-13T23:30:29;15.20;99.90
20524;DHT22;10420;48.542;12.270;2022-09-13T23:35:30;15.20;99.90
20524;DHT22;10420;48.542;12.270;2022-09-13T23:40:31;15.30;99.90
20524;DHT22;10420;48.542;12.270;2022-09-13T23:45:31;15.30;99.90
20524;DHT22;10420;48.542;12.270;2022-09-13T23:50:32;15.40;99.90
20524;DHT22;10420;48.542;12.270;2022-09-13T23:55:33;15.50;99.90
